createdAt,value
2022-09-03T00:01:15.200Z,100.00
2022-09-03T00:06:42.625Z,100.00
2022-09-03T00:12:12.671Z,100.00
2022-09-03T00:17:37.454Z,100.00
2022-09-03T00:23:02.482Z,100.00
2022-09-03T00:28:30.189Z,100.00
2022-09-03T00:33:54.325Z,100.00
2022-09-03T00:39:20.712Z,100.00
2022-09-03T00:44:55.623Z,100.00
2022-09-03T00:50:23.640Z,100.00
2022-09-03T00:55:51.363Z,100.00
2022-09-03T01:01:21.438Z,100.00
2022-09-03T01:06:50.271Z,100.00
2022-09-03T01:12:20.202Z,100.00
2022-09-03T01:17:57.094Z,100.00
2022-09-03T01:23:48.967Z,100.00
2022-09-03T01:29:21.717Z,100.00
2022-09-03T01:34:58.591Z,100.00
2022-09-03T01:40:30.783Z,100.00
2022-09-03T01:46:00.745Z,100.00
2022-09-03T01:51:38.787Z,100.00
2022-09-03T01:57:35.183Z,100.00
2022-09-03T02:03:05.723Z,100.00
2022-09-03T02:08:31.454Z,100.00
2022-09-03T02:13:57.754Z,100.00
2022-09-03T02:19:21.071Z,100.00
2022-09-03T02:24:45.820Z,100.00
2022-09-03T02:30:10.346Z,100.00
2022-09-03T02:35:33.500Z,100.00
2022-09-03T02:40:58.219Z,100.00
2022-09-03T02:46:25.671Z,100.00
2022-09-03T02:51:48.962Z,100.00
2022-09-03T02:57:15.646Z,100.00
2022-09-03T03:02:39.071Z,100.00
2022-09-03T03:08:02.546Z,100.00
2022-09-03T03:13:27.595Z,100.00
2022-09-03T03:18:50.842Z,100.00
2022-09-03T03:24:14.083Z,100.00
2022-09-03T03:29:39.561Z,100.00
2022-09-03T03:35:02.760Z,100.00
2022-09-03T03:40:26.308Z,100.00
2022-09-03T03:45:59.015Z,100.00
2022-09-03T03:51:22.282Z,100.00
2022-09-03T03:56:46.908Z,100.00
2022-09-03T04:02:20.213Z,100.00
2022-09-03T04:07:44.488Z,100.00
2022-09-03T04:13:07.638Z,100.00
2022-09-03T04:18:33.186Z,100.00
2022-09-03T04:23:57.035Z,100.00
2022-09-03T04:29:21.988Z,100.00
2022-09-03T04:34:46.593Z,100.00
2022-09-03T04:40:10.497Z,100.00
2022-09-03T04:45:33.775Z,100.00
2022-09-03T04:51:05.417Z,100.00
2022-09-03T04:56:30.856Z,100.00
2022-09-03T05:01:54.068Z,100.00
2022-09-03T05:07:20.405Z,100.00
2022-09-03T05:12:45.393Z,100.00
2022-09-03T05:18:08.613Z,100.00
2022-09-03T05:23:37.570Z,100.00
2022-09-03T05:29:04.336Z,100.00
2022-09-03T05:34:27.846Z,100.00
2022-09-03T05:39:52.552Z,100.00
2022-09-03T05:45:15.896Z,100.00
2022-09-03T05:50:39.062Z,100.00
2022-09-03T05:56:07.141Z,100.00
2022-09-03T06:01:32.111Z,100.00
2022-09-03T06:06:55.291Z,100.00
2022-09-03T06:12:19.809Z,100.00
2022-09-03T06:17:43.060Z,100.00
2022-09-03T06:23:06.237Z,100.00
2022-09-03T06:28:31.808Z,100.00
2022-09-03T06:33:58.580Z,100.00
2022-09-03T06:39:24.760Z,100.00
2022-09-03T06:44:49.326Z,100.00
2022-09-03T06:50:12.526Z,100.00
2022-09-03T06:55:39.946Z,100.00
2022-09-03T07:01:06.850Z,100.00
2022-09-03T07:06:31.505Z,100.00
2022-09-03T07:11:54.678Z,100.00
2022-09-03T07:17:19.329Z,100.00
2022-09-03T07:22:42.524Z,100.00
2022-09-03T07:28:06.928Z,100.00
2022-09-03T07:33:33.968Z,100.00
2022-09-03T07:38:58.507Z,100.00
2022-09-03T07:44:22.803Z,100.00
2022-09-03T07:49:48.068Z,100.00
2022-09-03T07:55:12.306Z,100.00
2022-09-03T08:00:35.635Z,100.00
2022-09-03T08:06:03.781Z,100.00
2022-09-03T08:11:28.441Z,100.00
2022-09-03T08:16:51.759Z,100.00
2022-09-03T08:22:16.336Z,100.00
2022-09-03T08:27:39.703Z,100.00
2022-09-03T08:33:04.904Z,100.00
2022-09-03T08:38:29.472Z,100.00
2022-09-03T08:44:07.043Z,100.00
2022-09-03T08:49:34.231Z,97.84
2022-09-03T08:55:03.168Z,96.37
2022-09-03T09:00:26.450Z,96.92
2022-09-03T09:05:55.299Z,93.30
2022-09-03T09:11:30.413Z,93.01
2022-09-03T09:17:02.591Z,87.58
2022-09-03T09:22:29.503Z,82.47
2022-09-03T09:27:58.427Z,81.84
2022-09-03T09:33:23.042Z,78.56
2022-09-03T09:38:48.873Z,81.58
2022-09-03T09:50:25.125Z,81.68
2022-09-03T09:55:51.360Z,81.29
2022-09-03T10:01:19.990Z,80.78
2022-09-03T10:06:57.863Z,82.79
2022-09-03T10:12:25.886Z,82.73
2022-09-03T10:17:56.686Z,81.04
2022-09-03T10:23:23.527Z,74.99
2022-09-03T10:28:50.818Z,72.98
2022-09-03T10:34:24.852Z,70.91
2022-09-03T10:40:00.431Z,68.60
2022-09-03T10:45:35.192Z,66.67
2022-09-03T10:51:07.713Z,67.35
2022-09-03T10:56:34.249Z,72.07
2022-09-03T11:02:07.862Z,70.24
2022-09-03T11:07:38.677Z,76.25
2022-09-03T11:13:06.879Z,72.92
2022-09-03T11:18:33.910Z,81.46
2022-09-03T11:24:12.229Z,83.64
2022-09-03T11:29:43.085Z,83.18
2022-09-03T11:35:15.675Z,84.87
2022-09-03T11:40:41.922Z,86.99
2022-09-03T11:46:12.912Z,85.72
2022-09-03T11:51:37.881Z,84.50
2022-09-03T11:57:13.257Z,81.76
2022-09-03T12:02:39.139Z,81.05
2022-09-03T12:08:11.962Z,77.27
2022-09-03T12:13:47.990Z,74.13
2022-09-03T12:19:16.795Z,71.63
2022-09-03T12:24:40.069Z,68.62
2022-09-03T12:30:06.873Z,67.59
2022-09-03T12:41:28.075Z,65.79
2022-09-03T12:52:47.631Z,64.65
2022-09-03T12:58:14.209Z,69.10
2022-09-03T13:03:48.095Z,60.96
2022-09-03T13:09:11.713Z,63.59
2022-09-03T13:14:44.883Z,62.16
2022-09-03T13:20:23.242Z,62.58
2022-09-03T13:25:54.628Z,61.07
2022-09-03T13:31:28.254Z,59.43
2022-09-03T13:36:56.008Z,59.95
2022-09-03T13:42:24.223Z,59.15
2022-09-03T13:48:03.719Z,60.91
2022-09-03T13:53:37.024Z,59.54
2022-09-03T13:59:03.297Z,58.15
2022-09-03T14:04:31.095Z,56.44
2022-09-03T14:10:00.930Z,52.33
2022-09-03T14:15:29.466Z,56.64
2022-09-03T14:20:57.851Z,55.73
2022-09-03T14:26:38.621Z,52.95
2022-09-03T14:32:35.693Z,51.25
2022-09-03T14:38:16.676Z,53.70
2022-09-03T14:44:00.219Z,51.78
2022-09-03T14:49:49.936Z,53.42
2022-09-03T14:55:24.830Z,52.17
2022-09-03T15:01:02.451Z,52.28
2022-09-03T15:06:33.918Z,53.99
2022-09-03T15:11:59.789Z,54.01
2022-09-03T15:17:38.755Z,51.89
2022-09-03T15:23:18.518Z,52.37
2022-09-03T15:28:52.063Z,52.94
2022-09-03T15:34:31.133Z,52.00
2022-09-03T15:40:03.229Z,53.63
2022-09-03T15:45:36.085Z,52.48
2022-09-03T15:51:10.527Z,51.78
2022-09-03T15:56:36.884Z,53.12
2022-09-03T16:02:05.603Z,52.89
2022-09-03T16:07:41.076Z,52.01
2022-09-03T16:13:07.890Z,52.54
2022-09-03T16:18:34.718Z,53.34
2022-09-03T16:24:00.512Z,52.35
2022-09-03T16:29:27.727Z,52.36
2022-09-03T16:34:59.250Z,53.68
2022-09-03T16:40:32.928Z,51.78
2022-09-03T16:46:04.562Z,52.17
2022-09-03T16:51:34.999Z,49.96
2022-09-03T16:57:09.450Z,53.54
2022-09-03T17:02:52.513Z,54.01
2022-09-03T17:08:21.635Z,55.96
2022-09-03T17:13:58.357Z,56.59
2022-09-03T17:19:26.261Z,56.71
2022-09-03T17:24:54.864Z,57.26
2022-09-03T17:30:24.126Z,58.33
2022-09-03T17:35:52.539Z,58.79
2022-09-03T17:41:22.672Z,61.54
2022-09-03T17:46:50.150Z,62.39
2022-09-03T17:52:21.437Z,63.29
2022-09-03T17:57:46.964Z,64.24
2022-09-03T18:03:15.224Z,65.07
2022-09-03T18:08:45.747Z,66.33
2022-09-03T18:14:16.634Z,66.83
2022-09-03T18:20:05.272Z,68.02
2022-09-03T18:25:47.465Z,70.06
2022-09-03T18:31:32.537Z,71.97
2022-09-03T18:37:17.761Z,73.47
2022-09-03T18:43:08.599Z,75.19
2022-09-03T18:48:54.711Z,75.89
2022-09-03T18:55:06.692Z,77.09
2022-09-03T19:00:49.467Z,78.26
2022-09-03T19:06:37.611Z,78.14
2022-09-03T19:12:30.346Z,79.22
2022-09-03T19:18:29.558Z,79.69
2022-09-03T19:24:14.809Z,82.13
2022-09-03T19:30:10.981Z,84.51
2022-09-03T19:35:57.806Z,87.26
2022-09-03T19:41:42.352Z,88.88
2022-09-03T19:47:26.144Z,90.85
2022-09-03T19:53:10.112Z,92.45
2022-09-03T19:58:52.468Z,92.93
2022-09-03T20:04:35.204Z,93.72
2022-09-03T20:10:21.701Z,94.11
2022-09-03T20:15:52.263Z,95.52
2022-09-03T20:21:24.476Z,96.56
2022-09-03T20:26:53.109Z,97.14
2022-09-03T20:32:27.569Z,99.49
2022-09-03T20:37:58.534Z,99.57
2022-09-03T20:43:56.483Z,99.11
2022-09-03T20:49:28.992Z,99.16
2022-09-03T20:54:58.925Z,100.00
2022-09-03T21:00:23.200Z,100.00
2022-09-03T21:05:57.515Z,100.00
2022-09-03T21:11:30.024Z,100.00
2022-09-03T21:17:00.215Z,100.00
2022-09-03T21:22:30.427Z,100.00
2022-09-03T21:27:58.142Z,100.00
2022-09-03T21:33:23.109Z,100.00
2022-09-03T21:38:49.079Z,100.00
2022-09-03T21:44:17.807Z,100.00
2022-09-03T21:49:53.149Z,100.00
2022-09-03T21:55:22.322Z,100.00
2022-09-03T22:00:47.546Z,100.00
2022-09-03T22:06:15.512Z,100.00
2022-09-03T22:12:03.962Z,100.00
2022-09-03T22:17:37.314Z,100.00
2022-09-03T22:23:05.936Z,100.00
2022-09-03T22:28:32.479Z,100.00
2022-09-03T22:34:01.807Z,100.00
2022-09-03T22:39:31.310Z,100.00
2022-09-03T22:45:08.385Z,100.00
2022-09-03T22:50:39.666Z,100.00
2022-09-03T22:56:07.051Z,100.00
2022-09-03T23:01:34.571Z,100.00
2022-09-03T23:07:03.677Z,100.00
2022-09-03T23:12:34.830Z,100.00
2022-09-03T23:18:06.068Z,100.00
2022-09-03T23:23:34.911Z,100.00
2022-09-03T23:29:04.283Z,100.00
2022-09-03T23:34:28.523Z,100.00
2022-09-03T23:40:04.851Z,100.00
2022-09-03T23:45:38.204Z,100.00
2022-09-03T23:51:09.579Z,100.00
2022-09-03T23:56:55.909Z,100.00
